Time;durP1;ratioP1;P1;durP2;ratioP2;P2;SDS_P1;SDS_P2;PMS_P1;PMS_P2;Temp;Humidity;BMP_temperature;BMP_pressure;BME280_temperature;BME280_humidity;BME280_pressure;Samples;Min_cycle;Max_cycle;Signal;HPM_P1;HPM_P2
2022/05/11 00:01:34;;;;;;;;;9.50;8.00;;;;;19.78;52.75;101293.84;5070458;28;49922;-68
2022/05/11 00:04:01;;;;;;;;;6.75;4.75;;;;;19.81;52.38;101288.53;5070637;28;49936;-67
2022/05/11 00:06:28;;;;;;;;;6.00;6.00;;;;;19.77;52.95;101292.97;5064426;28;49596;-68
2022/05/11 00:08:55;;;;;;;;;5.75;5.00;;;;;19.76;52.26;101293.88;5063754;28;50801;-65
2022/05/11 00:11:21;;;;;;;;;5.75;5.75;;;;;19.77;52.80;101290.31;5070234;28;49826;-65
2022/05/11 00:13:46;;;;;;;;;5.00;5.00;;;;;19.56;52.88;101251.44;5070438;28;50089;-66
2022/05/11 00:16:12;;;;;;;;;5.50;5.50;;;;;19.79;52.60;101295.66;5052165;28;49311;-66
2022/05/11 00:18:38;;;;;;;;;7.75;4.50;;;;;19.69;52.91;101278.88;5069967;28;52630;-65
2022/05/11 00:21:04;;;;;;;;;6.50;5.00;;;;;19.63;52.61;101263.81;5070360;28;49856;-66
2022/05/11 00:23:31;;;;;;;;;3.75;3.75;;;;;19.66;52.81;101281.53;5070453;28;49649;-66
2022/05/11 00:25:56;;;;;;;;;4.50;4.50;;;;;19.70;52.80;101288.63;5070187;28;49845;-66
2022/05/11 00:28:22;;;;;;;;;7.00;6.00;;;;;19.64;52.83;101265.56;5069995;28;50437;-66
2022/05/11 00:30:48;;;;;;;;;7.75;6.00;;;;;19.72;52.77;101286.81;5051964;28;49710;-65
2022/05/11 00:33:15;;;;;;;;;6.75;5.00;;;;;19.66;53.12;101265.56;5070141;28;49710;-66
2022/05/11 00:35:42;;;;;;;;;4.25;4.25;;;;;19.55;52.87;101240.75;5070239;28;49888;-66
2022/05/11 00:38:09;;;;;;;;;5.00;5.00;;;;;19.56;53.02;101246.09;5054954;28;50847;-66
2022/05/11 00:40:41;;;;;;;;;5.25;5.25;;;;;19.59;52.93;101250.50;5073373;28;49724;-65
2022/05/11 00:43:07;;;;;;;;;5.25;5.25;;;;;19.65;53.35;101264.66;5052013;28;49907;-65
2022/05/11 00:45:33;;;;;;;;;5.00;4.75;;;;;19.62;52.75;101254.06;5053638;28;49792;-65
2022/05/11 00:49:33;;;;;;;;;6.50;4.25;;;;;19.65;53.10;101253.13;5053252;28;49870;-66
2022/05/11 00:50:50;;;;;;;;;4.00;4.00;;;;;19.56;53.21;101237.22;5046776;28;49740;-66
2022/05/11 00:53:17;;;;;;;;;6.00;5.00;;;;;19.60;53.39;101244.31;5051734;28;50100;-65
2022/05/11 00:55:50;;;;;;;;;5.00;5.00;;;;;19.49;53.20;101224.81;5054375;28;49756;-66
2022/05/11 00:58:26;;;;;;;;;8.00;6.00;;;;;19.45;53.35;101235.50;5046679;28;50000;-66
2022/05/11 01:00:53;;;;;;;;;4.75;4.75;;;;;19.49;53.36;101236.34;5051782;28;49782;-66
2022/05/11 01:03:23;;;;;;;;;5.75;5.75;;;;;19.47;53.40;101229.28;5053137;28;49702;-67
2022/05/11 01:05:49;;;;;;;;;5.00;5.00;;;;;19.41;53.30;101219.59;5051440;28;49714;-66
2022/05/11 01:08:17;;;;;;;;;4.75;4.75;;;;;19.30;53.54;101214.34;5052764;28;50067;-65
2022/05/11 01:10:44;;;;;;;;;5.25;4.50;;;;;19.07;53.90;101187.00;5052895;28;49641;-66
2022/05/11 01:13:13;;;;;;;;;7.00;4.50;;;;;19.32;53.86;101222.31;5051555;28;49681;-65
2022/05/11 01:15:40;;;;;;;;;5.75;5.75;;;;;19.30;54.04;101217.00;5052946;28;49799;-66
2022/05/11 01:18:08;;;;;;;;;9.25;7.25;;;;;19.26;54.09;101212.59;5052760;28;49945;-66
2022/05/11 01:20:36;;;;;;;;;7.50;7.25;;;;;19.13;53.95;101197.63;5058508;28;51190;-66
2022/05/11 01:23:10;;;;;;;;;6.25;6.25;;;;;19.27;54.12;101214.34;5052843;28;49897;-67
2022/05/11 01:25:35;;;;;;;;;8.75;7.50;;;;;19.30;54.04;101227.66;5056844;28;49901;-67
2022/05/11 01:28:11;;;;;;;;;5.50;4.75;;;;;19.31;54.07;101213.44;5042473;28;51425;-68
2022/05/11 01:30:37;;;;;;;;;5.00;5.00;;;;;19.27;53.77;101203.72;5056201;28;49826;-67
2022/05/11 01:33:03;;;;;;;;;4.75;4.75;;;;;19.07;54.21;101182.56;5052448;28;49824;-67
2022/05/11 01:35:47;;;;;;;;;6.00;4.00;;;;;19.12;54.20;101188.75;5052537;28;49725;-68
2022/05/11 01:38:18;;;;;;;;;3.75;3.75;;;;;19.21;53.88;101209.09;5050079;28;49825;-66
2022/05/11 01:40:43;;;;;;;;;4.00;3.50;;;;;19.17;54.31;101205.56;5054412;28;49711;-65
2022/05/11 01:43:21;;;;;;;;;4.00;4.00;;;;;19.17;54.67;101210.88;5060850;28;49840;-67
2022/05/11 01:45:48;;;;;;;;;5.50;5.00;;;;;19.14;54.23;101207.38;5073033;28;49684;-67
2022/05/11 01:48:13;;;;;;;;;5.00;5.00;;;;;19.02;55.13;101189.72;5075111;27;49876;-68
2022/05/11 01:50:39;;;;;;;;;4.75;4.75;;;;;18.93;54.79;101187.13;5073609;27;49893;-66
2022/05/11 01:53:08;;;;;;;;;4.00;3.75;;;;;19.00;54.87;101203.91;5072759;28;49646;-69
2022/05/11 01:55:34;;;;;;;;;5.25;5.00;;;;;18.98;55.05;101200.38;5071355;28;49888;-69
2022/05/11 01:58:01;;;;;;;;;6.00;5.75;;;;;19.00;54.65;101204.78;5076714;27;49803;-65
2022/05/11 02:00:26;;;;;;;;;3.25;3.25;;;;;18.98;55.26;101206.59;5079965;27;49745;-69
2022/05/11 02:02:52;;;;;;;;;8.50;5.50;;;;;18.73;55.26;101165.97;5074653;27;49779;-68
2022/05/11 02:08:02;;;;;;;;;4.25;4.25;;;;;18.98;55.52;101197.72;5071973;27;50118;-70
2022/05/11 02:10:28;;;;;;;;;7.00;5.00;;;;;18.88;55.52;101187.13;5072332;27;49587;-66
2022/05/11 02:12:57;;;;;;;;;4.00;4.00;;;;;18.68;55.66;101148.25;5077590;27;49782;-68
2022/05/11 02:15:23;;;;;;;;;4.00;3.50;;;;;18.89;55.25;101182.69;5072706;28;49827;-67
2022/05/11 02:17:49;;;;;;;;;5.75;5.00;;;;;18.83;55.89;101174.78;5072082;27;51119;-66
2022/05/11 02:20:16;;;;;;;;;5.50;5.50;;;;;18.89;55.71;101190.69;5083324;27;50079;-68
2022/05/11 02:22:42;;;;;;;;;7.25;6.00;;;;;18.83;55.90;101183.63;5072337;28;49709;-66
2022/05/11 02:25:09;;;;;;;;;6.75;6.00;;;;;18.79;56.20;101181.00;5071991;27;50082;-69
2022/05/11 02:27:35;;;;;;;;;4.00;4.00;;;;;18.62;56.15;101151.78;5070073;28;51567;-69
2022/05/11 02:30:01;;;;;;;;;3.75;3.75;;;;;18.82;56.40;101194.28;5076771;27;50419;-66
2022/05/11 02:32:27;;;;;;;;;4.00;3.00;;;;;18.79;56.49;101187.19;5072299;28;49562;-66
2022/05/11 02:37:38;;;;;;;;;6.50;6.50;;;;;18.73;56.60;101181.06;5071448;27;49908;-66
2022/05/11 02:40:05;;;;;;;;;5.25;4.25;;;;;18.67;56.90;101179.28;5075069;27;49988;-65
2022/05/11 02:42:31;;;;;;;;;4.25;4.25;;;;;18.63;57.08;101171.31;5071658;28;49824;-66
2022/05/11 02:44:56;;;;;;;;;5.25;5.00;;;;;18.64;57.19;101175.75;5072070;28;49807;-65
2022/05/11 02:47:22;;;;;;;;;5.00;5.00;;;;;18.63;57.33;101173.97;5071616;28;49854;-65
2022/05/11 02:49:48;;;;;;;;;5.75;5.75;;;;;18.52;57.36;101166.03;5073942;27;49786;-67
2022/05/11 02:52:14;;;;;;;;;7.00;5.00;;;;;18.54;57.59;101167.81;5071726;27;49882;-64
2022/05/11 02:54:43;;;;;;;;;7.25;7.25;;;;;18.02;57.38;101085.69;5071703;28;49855;-65
2022/05/11 02:57:09;;;;;;;;;4.00;4.00;;;;;18.42;57.84;101159.88;5071244;27;49592;-66
2022/05/11 02:59:34;;;;;;;;;7.00;7.00;;;;;18.47;57.77;101176.72;5071504;27;49708;-66
2022/05/11 03:01:59;;;;;;;;;7.75;7.00;;;;;18.35;57.94;101155.50;5071191;27;49743;-66
2022/05/11 03:04:25;;;;;;;;;5.00;5.00;;;;;18.37;57.77;101166.13;5069782;27;49657;-65
2022/05/11 03:06:51;;;;;;;;;8.25;7.00;;;;;18.42;57.95;101173.19;5071114;28;49880;-65
2022/05/11 03:09:17;;;;;;;;;7.00;6.00;;;;;18.41;58.23;101174.06;5071316;27;49729;-66
2022/05/11 03:11:44;;;;;;;;;4.50;4.50;;;;;18.32;58.09;101163.47;5071566;28;49911;-66
2022/05/11 03:14:11;;;;;;;;;7.00;7.00;;;;;18.33;58.29;101170.56;5071255;28;49659;-65
2022/05/11 03:16:37;;;;;;;;;6.75;5.50;;;;;18.23;58.08;101159.09;5076462;27;49993;-65
2022/05/11 03:19:02;;;;;;;;;7.50;7.50;;;;;18.13;58.54;101138.75;5070990;28;49823;-66
2022/05/11 03:21:28;;;;;;;;;7.25;7.25;;;;;18.25;58.85;101154.69;5069631;28;49893;-67
2022/05/11 03:23:54;;;;;;;;;8.75;7.00;;;;;18.21;59.00;101149.38;5071293;28;49819;-66
2022/05/11 03:26:21;;;;;;;;;9.25;8.75;;;;;18.21;59.61;101152.91;5077332;27;49885;-65
2022/05/11 03:28:46;;;;;;;;;10.50;10.25;;;;;18.24;59.71;101162.66;5071089;28;49608;-66
2022/05/11 03:31:12;;;;;;;;;10.25;10.25;;;;;18.18;60.10;101158.25;5070711;27;49546;-65
2022/05/11 03:36:21;;;;;;;;;12.25;12.25;;;;;18.12;60.40;101152.94;5075819;27;50205;-67
2022/05/11 03:38:47;;;;;;;;;14.50;14.50;;;;;18.12;60.95;101155.59;5070662;27;49786;-66
2022/05/11 03:41:12;;;;;;;;;9.50;9.50;;;;;18.14;61.02;101158.25;5069286;28;49778;-65
2022/05/11 03:43:37;;;;;;;;;16.75;13.75;;;;;17.98;61.03;101133.53;5070900;28;49853;-65
2022/05/11 03:46:03;;;;;;;;;12.25;12.25;;;;;18.10;61.31;101156.50;5074383;27;49771;-65
2022/05/11 03:48:28;;;;;;;;;11.00;10.00;;;;;18.09;61.39;101168.03;5070782;28;50090;-67
2022/05/11 03:50:55;;;;;;;;;10.25;10.25;;;;;18.00;61.77;101148.56;5076987;27;50081;-67
2022/05/11 03:53:21;;;;;;;;;12.50;12.25;;;;;18.01;61.58;101157.41;5070662;27;50122;-66
2022/05/11 03:55:46;;;;;;;;;9.00;8.25;;;;;17.60;61.85;101093.78;5072293;27;51431;-66
2022/05/11 03:58:13;;;;;;;;;10.50;10.50;;;;;17.93;61.91;101149.47;5070710;27;49975;-67
2022/05/11 04:00:38;;;;;;;;;11.75;9.00;;;;;17.97;62.04;101167.19;5070755;28;50001;-66
2022/05/11 04:03:04;;;;;;;;;9.00;8.50;;;;;17.48;62.14;101092.03;5070402;27;49782;-68
2022/05/11 04:05:32;;;;;;;;;10.00;9.25;;;;;17.82;62.07;101158.34;5070173;27;50940;-66
2022/05/11 04:07:57;;;;;;;;;8.50;8.25;;;;;17.79;62.28;101150.41;5074344;27;49794;-67
2022/05/11 04:10:23;;;;;;;;;11.75;10.75;;;;;17.82;61.97;101155.69;5069476;27;49561;-68
2022/05/11 04:12:48;;;;;;;;;9.50;9.25;;;;;17.73;62.04;101151.28;5070101;28;49825;-67
2022/05/11 04:15:14;;;;;;;;;9.25;9.25;;;;;17.82;62.42;101169.84;5070066;27;49849;-68
2022/05/11 04:17:41;;;;;;;;;11.50;9.75;;;;;17.77;62.73;101166.34;5074523;27;49747;-66
2022/05/11 04:20:09;;;;;;;;;10.00;8.75;;;;;17.80;62.61;101174.28;5073212;27;49922;-68
2022/05/11 04:22:34;;;;;;;;;10.00;10.00;;;;;17.75;62.64;101168.09;5070494;27;50069;-67
2022/05/11 04:24:59;;;;;;;;;11.00;10.75;;;;;17.62;62.71;101143.31;5069912;27;50908;-68
2022/05/11 04:27:25;;;;;;;;;11.25;10.25;;;;;17.65;62.45;101155.69;5070606;27;49590;-67
2022/05/11 04:29:50;;;;;;;;;13.50;12.50;;;;;17.68;63.17;101164.56;5072847;27;49968;-67
2022/05/11 04:32:15;;;;;;;;;11.25;11.25;;;;;17.72;63.04;101169.00;5070662;27;49565;-66
2022/05/11 04:34:42;;;;;;;;;13.50;11.75;;;;;17.71;62.67;101171.66;5069966;27;50617;-68
2022/05/11 04:37:09;;;;;;;;;12.50;12.50;;;;;17.76;62.98;101176.94;5079892;27;49901;-68
2022/05/11 04:39:34;;;;;;;;;12.25;11.00;;;;;17.75;62.72;101176.06;5069741;27;49851;-70
2022/05/11 04:42:00;;;;;;;;;13.25;11.25;;;;;17.63;62.98;101153.03;5074743;27;49773;-66
2022/05/11 04:44:25;;;;;;;;;12.00;9.75;;;;;17.59;63.09;101147.75;5069888;27;50169;-66
2022/05/11 04:46:51;;;;;;;;;15.50;14.00;;;;;17.73;62.89;101172.53;5073785;27;49745;-71
2022/05/11 04:49:19;;;;;;;;;14.75;13.25;;;;;17.71;63.37;101172.53;5070032;28;49822;-66
2022/05/11 04:51:49;;;;;;;;;14.25;12.75;;;;;17.57;63.61;101142.47;5070116;28;50066;-67
2022/05/11 04:54:15;;;;;;;;;8.50;8.50;;;;;17.71;63.73;101166.34;5069706;27;50519;-69
2022/05/11 04:56:40;;;;;;;;;10.50;10.25;;;;;17.71;63.73;101169.88;5072058;27;49841;-67
2022/05/11 04:59:08;;;;;;;;;10.00;9.50;;;;;17.73;63.57;101176.06;5069898;28;50451;-70
2022/05/11 05:01:33;;;;;;;;;14.25;14.25;;;;;17.76;63.77;101172.56;5063613;28;49688;-66
2022/05/11 05:03:59;;;;;;;;;17.25;15.00;;;;;17.62;63.47;101155.72;5069309;27;50570;-65
2022/05/11 05:06:24;;;;;;;;;14.25;13.00;;;;;17.71;63.49;101166.34;5070520;27;49700;-65
2022/05/11 05:08:52;;;;;;;;;10.25;10.25;;;;;17.76;63.47;101171.63;5074562;27;49809;-66
2022/05/11 05:11:17;;;;;;;;;15.50;13.00;;;;;17.73;63.63;101161.91;5071070;27;50012;-66
2022/05/11 05:13:43;;;;;;;;;15.50;12.75;;;;;17.64;63.23;101149.50;5069460;27;49853;-66
2022/05/11 05:16:08;;;;;;;;;9.00;9.00;;;;;17.72;63.64;101155.72;5076870;27;49802;-67
2022/05/11 05:18:35;;;;;;;;;13.50;12.50;;;;;17.83;62.89;101162.78;5069516;27;49655;-66
2022/05/11 05:21:00;;;;;;;;;14.25;13.25;;;;;17.77;62.96;101166.34;5069927;28;50172;-66
2022/05/11 05:23:26;;;;;;;;;12.00;12.00;;;;;17.73;63.34;101152.16;5076633;27;50369;-66
2022/05/11 05:25:51;;;;;;;;;13.75;13.75;;;;;17.84;63.16;101164.53;5072902;28;49776;-67
2022/05/11 05:31:05;;;;;;;;;14.25;12.75;;;;;17.85;63.22;101163.66;5072365;27;49946;-66
2022/05/11 05:33:32;;;;;;;;;14.00;12.75;;;;;17.85;62.92;101164.53;5075569;27;50568;-65
2022/05/11 05:35:58;;;;;;;;;15.00;14.25;;;;;17.75;63.46;101141.53;5072716;28;49880;-66
2022/05/11 05:38:23;;;;;;;;;13.25;12.25;;;;;17.92;63.07;101168.94;5072936;28;49846;-66
2022/05/11 05:40:49;;;;;;;;;10.50;9.25;;;;;17.95;62.46;101174.28;5074923;27;49940;-66
2022/05/11 05:43:15;;;;;;;;;12.75;12.75;;;;;17.96;62.82;101168.06;5075295;27;49914;-67
2022/05/11 05:45:40;;;;;;;;;14.25;14.25;;;;;17.96;62.59;101170.72;5078493;27;49639;-66
2022/05/11 05:48:06;;;;;;;;;16.50;13.25;;;;;17.84;62.34;101153.91;5071497;28;49707;-66
2022/05/11 05:50:32;;;;;;;;;11.50;10.50;;;;;17.89;62.98;101173.41;5071187;27;50019;-67
2022/05/11 05:52:58;;;;;;;;;19.00;19.00;;;;;17.90;62.87;101159.22;5072382;28;49792;-67
2022/05/11 05:55:23;;;;;;;;;15.00;14.50;;;;;17.90;62.64;101156.56;5076128;27;49818;-66
2022/05/11 05:57:48;;;;;;;;;13.00;12.75;;;;;17.94;62.79;101172.47;5072424;28;50195;-66
2022/05/11 06:00:15;;;;;;;;;10.00;10.00;;;;;17.92;62.78;101155.66;5072572;28;49965;-66
2022/05/11 06:02:40;;;;;;;;;13.00;12.00;;;;;18.11;62.41;101185.72;5071544;27;50695;-67
2022/05/11 06:05:06;;;;;;;;;13.75;10.25;;;;;18.05;62.77;101161.84;5080590;27;49787;-71
2022/05/11 06:07:31;;;;;;;;;9.75;9.75;;;;;17.90;62.62;101137.97;5075994;27;49763;-75
2022/05/11 06:09:56;;;;;;;;;14.50;11.75;;;;;18.12;62.73;101171.53;5066622;28;49929;-66
2022/05/11 06:12:22;;;;;;;;;10.50;10.50;;;;;18.22;62.50;101178.59;5072432;27;50317;-65
2022/05/11 06:14:47;;;;;;;;;13.25;11.50;;;;;18.23;62.51;101176.81;5074822;27;49730;-69
2022/05/11 06:17:23;;;;;;;;;12.25;12.25;;;;;18.26;62.22;101174.16;5070595;27;49693;-63
2022/05/11 06:19:49;;;;;;;;;12.50;11.00;;;;;18.31;62.16;101175.88;5066780;27;49867;-64
2022/05/11 06:22:15;;;;;;;;;11.00;10.25;;;;;18.27;62.06;101158.19;5076302;27;49955;-62
2022/05/11 06:24:40;;;;;;;;;14.00;12.50;;;;;18.36;61.97;101175.00;5071857;28;49717;-64
2022/05/11 06:27:13;;;;;;;;;15.75;12.25;;;;;18.41;62.04;101173.19;5072367;28;49953;-69
2022/05/11 06:29:39;;;;;;;;;11.00;11.00;;;;;18.42;62.23;101175.84;5078430;27;49681;-67
2022/05/11 06:32:04;;;;;;;;;12.75;11.50;;;;;18.50;61.91;101187.31;5078292;27;50985;-67
2022/05/11 06:34:31;;;;;;;;;13.50;13.50;;;;;18.45;61.88;101167.00;5071250;28;49739;-63
2022/05/11 06:36:56;;;;;;;;;16.25;14.75;;;;;18.55;61.78;101176.69;5073202;27;49914;-66
2022/05/11 06:39:23;;;;;;;;;16.75;14.50;;;;;18.57;61.65;101189.06;5071824;28;50020;-64
2022/05/11 06:41:49;;;;;;;;;12.00;12.00;;;;;18.48;61.41;101161.63;5071740;28;50679;-64
2022/05/11 06:44:15;;;;;;;;;17.75;15.50;;;;;18.56;61.19;101160.72;5072519;27;51458;-64
2022/05/11 06:46:40;;;;;;;;;10.75;10.75;;;;;18.68;61.53;101182.84;5077960;27;49784;-63
2022/05/11 06:49:06;;;;;;;;;14.75;13.75;;;;;18.82;60.79;101191.63;5077728;27;49716;-67
2022/05/11 06:51:31;;;;;;;;;17.50;17.00;;;;;18.82;60.93;101184.53;5071255;27;50683;-66
2022/05/11 06:59:33;;;;;;;;;13.75;13.00;;;;;19.07;60.44;101187.00;5074224;27;49747;-63
2022/05/11 07:02:03;;;;;;;;;10.50;10.50;;;;;18.90;60.02;101141.00;5073386;27;51531;-67
2022/05/11 07:04:28;;;;;;;;;15.00;13.50;;;;;18.98;59.77;101145.38;5078885;27;49609;-63
2022/05/11 07:06:55;;;;;;;;;9.25;9.25;;;;;19.21;59.15;101173.63;5078558;27;49954;-63
2022/05/11 07:09:23;;;;;;;;;14.25;12.75;;;;;19.33;58.97;101195.69;5076527;27;50045;-65
2022/05/11 07:14:34;;;;;;;;;13.50;13.50;;;;;19.45;57.93;101168.94;5078695;27;50746;-67
2022/05/11 07:16:59;;;;;;;;;13.75;12.50;;;;;19.30;57.62;101137.16;5072540;27;49856;-68
2022/05/11 07:19:25;;;;;;;;;11.00;10.00;;;;;19.49;57.36;101159.13;5077696;27;50005;-67
2022/05/11 07:21:51;;;;;;;;;13.75;11.75;;;;;19.60;57.11;101167.09;5074289;27;49933;-62
2022/05/11 07:24:17;;;;;;;;;12.00;12.00;;;;;19.61;57.47;101163.53;5055333;27;49753;-64
2022/05/11 07:26:42;;;;;;;;;12.75;11.25;;;;;19.60;56.93;101164.41;5067331;28;50279;-68
2022/05/11 07:29:08;;;;;;;;;11.50;10.75;;;;;19.60;56.50;101151.09;5072074;27;49773;-67
2022/05/11 07:31:33;;;;;;;;;11.50;10.25;;;;;19.64;56.48;101143.06;5070718;28;49723;-63
2022/05/11 07:33:58;;;;;;;;;13.75;13.75;;;;;19.77;56.06;101159.78;5070845;27;49706;-64
2022/05/11 07:36:24;;;;;;;;;11.00;11.00;;;;;19.76;56.52;101138.50;5078358;27;49770;-61
2022/05/11 07:38:50;;;;;;;;;10.25;10.25;;;;;19.86;56.06;101149.03;5075548;27;50094;-64
2022/05/11 07:41:16;;;;;;;;;13.00;12.75;;;;;19.90;55.61;101150.78;5070618;28;50561;-67
2022/05/11 07:43:41;;;;;;;;;16.25;13.50;;;;;19.99;54.82;101150.66;5070855;28;49727;-66
2022/05/11 07:46:07;;;;;;;;;10.75;10.75;;;;;20.09;53.76;101159.44;5077999;27;50009;-66
2022/05/11 07:48:32;;;;;;;;;10.25;10.25;;;;;20.12;53.84;101161.19;5072721;27;49903;-64
2022/05/11 07:50:58;;;;;;;;;12.75;11.25;;;;;20.20;53.53;101151.31;5068801;27;51786;-64
2022/05/11 07:53:23;;;;;;;;;12.25;11.00;;;;;20.05;53.55;101132.81;5070827;28;50203;-63
2022/05/11 07:59:52;;;;;;;;;11.00;11.00;;;;;20.24;52.94;101159.22;5070220;28;49787;-63
2022/05/11 08:01:18;;;;;;;;;8.50;8.50;;;;;20.35;52.72;101163.53;5068700;28;49929;-64
2022/05/11 08:03:43;;;;;;;;;7.75;6.50;;;;;20.34;52.36;101165.31;5070612;28;49675;-66
2022/05/11 08:06:08;;;;;;;;;7.50;7.50;;;;;20.34;52.37;101162.66;5070601;27;50001;-67
2022/05/11 08:08:34;;;;;;;;;11.50;10.00;;;;;20.32;51.96;101153.81;5063689;27;49893;-67
2022/05/11 08:10:59;;;;;;;;;9.00;7.25;;;;;20.39;51.44;101149.28;5071106;27;49679;-68
2022/05/11 08:13:24;;;;;;;;;9.50;9.00;;;;;20.49;51.44;101157.16;5070407;27;49629;-66
2022/05/11 08:15:50;;;;;;;;;11.50;10.50;;;;;20.55;51.37;101151.72;5075537;27;49839;-66
2022/05/11 08:18:16;;;;;;;;;7.25;7.25;;;;;20.65;50.80;101170.28;5071838;27;49993;-66
2022/05/11 08:20:44;;;;;;;;;11.75;9.25;;;;;20.68;51.13;101157.78;5068986;28;50562;-66
2022/05/11 08:23:11;;;;;;;;;10.25;9.50;;;;;20.69;51.14;101151.53;5070213;27;49775;-67
2022/05/11 08:25:38;;;;;;;;;8.00;8.00;;;;;20.79;51.36;101154.97;5068886;28;49890;-67
2022/05/11 08:28:19;;;;;;;;;7.75;7.25;;;;;20.83;50.44;101152.22;5070409;28;49826;-66
2022/05/11 08:33:31;;;;;;;;;5.00;5.00;;;;;20.92;49.96;101160.97;5070214;28;49832;-70
2022/05/11 08:36:00;;;;;;;;;8.50;7.00;;;;;20.97;49.77;101154.69;5068977;27;50027;-69
2022/05/11 08:38:31;;;;;;;;;6.25;6.25;;;;;21.01;48.80;101161.72;5070408;28;49889;-67
2022/05/11 08:41:04;;;;;;;;;6.00;6.00;;;;;20.96;48.53;101142.25;5068516;28;52407;-70
2022/05/11 08:43:31;;;;;;;;;6.75;6.75;;;;;21.05;47.37;101157.25;5069667;28;49838;-68
2022/05/11 08:46:03;;;;;;;;;4.00;4.00;;;;;21.12;46.12;101158.88;5068456;28;50338;-68
2022/05/11 08:48:56;;;;;;;;;3.50;3.50;;;;;21.17;45.91;101161.50;5068820;28;49605;-69
2022/05/11 08:51:30;;;;;;;;;4.25;4.25;;;;;21.14;45.90;101149.97;5066914;28;49806;-68
2022/05/11 08:54:44;;;;;;;;;4.75;4.00;;;;;21.25;45.75;101154.25;5069800;28;49848;-68
2022/05/11 08:57:23;;;;;;;;;6.00;6.00;;;;;21.31;44.94;101156.81;5067788;28;49816;-67
2022/05/11 08:59:52;;;;;;;;;4.00;4.00;;;;;21.34;44.97;101152.31;5073580;28;49744;-67
2022/05/11 09:02:52;;;;;;;;;4.50;4.50;;;;;21.43;44.89;101159.31;5073310;28;49847;-69
2022/05/11 09:05:26;;;;;;;;;6.50;5.25;;;;;21.26;45.22;101122.19;5070108;28;49793;-69
2022/05/11 09:07:53;;;;;;;;;4.25;3.00;;;;;21.39;44.80;101138.88;5073382;27;49607;-68
2022/05/11 09:10:24;;;;;;;;;7.75;6.50;;;;;21.55;44.53;101150.19;5073261;27;50097;-68
2022/05/11 09:12:58;;;;;;;;;5.25;3.25;;;;;21.56;44.78;101141.25;5073259;28;49910;-69
2022/05/11 09:15:56;;;;;;;;;7.25;6.00;;;;;21.66;44.68;101157.06;5073327;28;49734;-68
2022/05/11 09:18:32;;;;;;;;;6.25;6.25;;;;;21.54;44.68;101114.56;5073187;27;49949;-70
2022/05/11 09:21:05;;;;;;;;;5.00;4.00;;;;;21.75;44.23;101148.00;5071643;28;49921;-69
2022/05/11 09:23:36;;;;;;;;;3.50;3.50;;;;;21.80;43.85;101147.91;5071366;28;52966;-69
2022/05/11 09:26:05;;;;;;;;;5.75;5.75;;;;;21.82;43.97;101146.13;5071207;28;49747;-68
2022/05/11 09:28:33;;;;;;;;;4.50;4.50;;;;;21.71;43.82;101119.56;5071480;28;50085;-68
2022/05/11 09:31:25;;;;;;;;;9.00;5.00;;;;;21.82;44.12;101133.63;5072895;28;49715;-73
2022/05/11 09:33:59;;;;;;;;;5.50;5.50;;;;;21.95;44.38;101145.81;5067632;28;49680;-68
2022/05/11 09:36:36;;;;;;;;;4.00;4.00;;;;;21.94;44.26;101124.47;5071197;28;49972;-71
2022/05/11 09:39:14;;;;;;;;;4.50;4.50;;;;;22.00;44.44;101137.69;5072556;28;50098;-67
2022/05/11 09:41:49;;;;;;;;;5.00;3.75;;;;;22.14;44.29;101143.69;5072719;28;49857;-67
2022/05/11 09:44:20;;;;;;;;;4.25;4.25;;;;;22.10;44.46;101134.00;5071688;27;50633;-68
2022/05/11 09:46:46;;;;;;;;;5.00;4.00;;;;;22.14;43.88;101116.97;5072630;28;49759;-68
2022/05/11 09:49:26;;;;;;;;;3.00;3.00;;;;;22.12;43.95;101099.19;5071398;28;49683;-72
2022/05/11 09:51:58;;;;;;;;;3.25;3.25;;;;;22.36;43.62;101132.53;5067753;28;49618;-73
2022/05/11 09:54:38;;;;;;;;;5.00;5.00;;;;;22.40;43.37;101132.44;5072208;28;49925;-71
2022/05/11 09:57:09;;;;;;;;;5.50;4.50;;;;;22.42;43.37;101129.72;5072223;28;49752;-68
2022/05/11 09:59:41;;;;;;;;;4.50;4.50;;;;;22.48;43.62;101126.91;5072407;28;49687;-68
2022/05/11 10:02:22;;;;;;;;;2.50;2.50;;;;;22.54;43.05;101132.13;5072668;28;49756;-72
2022/05/11 10:05:04;;;;;;;;;5.75;4.75;;;;;22.52;43.12;101107.22;5071939;28;49805;-75
2022/05/11 10:07:36;;;;;;;;;4.25;4.25;;;;;22.57;43.32;101111.53;5066949;28;49803;-69
2022/05/11 10:10:09;;;;;;;;;3.00;3.00;;;;;22.46;43.08;101086.81;5070520;28;49727;-70
2022/05/11 10:12:38;;;;;;;;;3.25;3.25;;;;;22.74;42.99;101134.34;5072302;28;49845;-69
2022/05/11 10:23:58;;;;;;;;;3.75;3.75;;;;;22.89;42.68;101127.78;5072155;28;49697;-68
2022/05/11 10:26:35;;;;;;;;;3.25;3.25;;;;;22.95;42.96;101128.50;5071992;28;51145;-68
2022/05/11 10:29:07;;;;;;;;;3.75;3.75;;;;;22.95;43.26;101127.63;5070816;28;49817;-72
2022/05/11 10:31:39;;;;;;;;;5.00;5.00;;;;;23.05;43.10;101126.47;5071653;28;49869;-76
2022/05/11 10:34:32;;;;;;;;;3.50;3.00;;;;;23.09;42.96;101125.50;5071970;28;50015;-68
2022/05/11 10:37:23;;;;;;;;;3.75;3.25;;;;;23.10;42.91;101111.19;5063798;28;50934;-67
2022/05/11 10:40:34;;;;;;;;;3.75;3.75;;;;;23.20;43.02;101128.78;5068265;28;49674;-67
2022/05/11 10:43:21;;;;;;;;;4.25;4.25;;;;;23.25;42.81;101120.63;5065700;28;50153;-67
2022/05/11 10:46:07;;;;;;;;;3.50;3.50;;;;;23.26;43.08;101109.88;5072020;28;49690;-71
2022/05/11 10:48:38;;;;;;;;;2.50;2.50;;;;;23.30;42.88;101105.31;5065627;28;50994;-66
2022/05/11 10:51:38;;;;;;;;;4.00;2.00;;;;;23.31;43.03;101109.75;5071793;28;49818;-68
2022/05/11 10:54:36;;;;;;;;;4.25;4.25;;;;;23.34;42.95;101088.22;5071741;27;49772;-69
2022/05/11 10:57:04;;;;;;;;;3.25;3.00;;;;;23.37;43.15;101088.16;5068178;28;49719;-70
2022/05/11 11:00:12;;;;;;;;;5.50;5.50;;;;;23.41;42.14;101095.19;5071674;28;50496;-73
2022/05/11 11:02:56;;;;;;;;;5.00;5.00;;;;;23.44;41.82;101087.06;5069574;28;49789;-68
2022/05/11 11:05:40;;;;;;;;;3.50;3.00;;;;;23.48;42.00;101086.06;5071557;28;50033;-69
2022/05/11 11:08:26;;;;;;;;;5.00;5.00;;;;;23.40;42.26;101050.56;5069865;28;49979;-69
2022/05/11 11:11:15;;;;;;;;;3.00;3.00;;;;;23.62;42.52;101085.72;5066054;28;49799;-70
2022/05/11 11:13:45;;;;;;;;;4.75;3.75;;;;;23.72;43.10;101080.97;5060454;28;49818;-69
2022/05/11 11:16:13;;;;;;;;;5.50;5.50;;;;;23.75;42.57;101088.94;5071427;27;49745;-69
2022/05/11 11:18:43;;;;;;;;;4.50;4.00;;;;;23.79;42.79;101075.41;5071504;28;49883;-68
2022/05/11 11:21:11;;;;;;;;;6.25;4.75;;;;;23.84;43.01;101073.47;5070467;28;49821;-69
2022/05/11 11:23:39;;;;;;;;;7.00;6.00;;;;;23.88;42.51;101074.25;5070898;28;49731;-69
2022/05/11 11:26:32;;;;;;;;;4.50;4.50;;;;;23.82;42.92;101061.00;5070208;28;49613;-68
2022/05/11 11:29:01;;;;;;;;;2.50;2.50;;;;;23.96;43.46;101073.09;5068360;28;49942;-70
2022/05/11 11:31:28;;;;;;;;;4.00;4.00;;;;;23.94;43.05;101041.91;5070775;28;50562;-69
2022/05/11 11:33:56;;;;;;;;;6.25;4.75;;;;;24.09;42.63;101062.00;5069481;28;49968;-69
2022/05/11 11:36:26;;;;;;;;;3.00;3.00;;;;;24.14;42.68;101073.50;5071035;27;49899;-69
2022/05/11 11:38:53;;;;;;;;;5.25;5.25;;;;;23.89;42.51;101023.25;5070858;28;50037;-68
2022/05/11 11:41:51;;;;;;;;;4.75;3.75;;;;;24.22;42.13;101064.28;5070902;27;51108;-69
2022/05/11 11:44:46;;;;;;;;;2.00;2.00;;;;;24.00;42.29;101014.88;5070334;28;49668;-69
2022/05/11 11:47:27;;;;;;;;;5.75;5.00;;;;;24.31;41.86;101064.91;5067216;28;49730;-69
2022/05/11 11:49:57;;;;;;;;;4.00;3.25;;;;;24.33;42.26;101063.97;5070859;28;49935;-68
2022/05/11 11:52:40;;;;;;;;;3.25;3.25;;;;;24.35;41.90;101053.19;5069296;28;50542;-71
2022/05/11 11:55:28;;;;;;;;;3.50;3.00;;;;;24.37;42.15;101054.91;5070452;27;49800;-70
2022/05/11 11:57:57;;;;;;;;;2.75;1.75;;;;;24.43;42.33;101064.56;5070628;27;49878;-71
2022/05/11 12:00:28;;;;;;;;;2.50;2.50;;;;;24.49;41.77;101059.88;5070882;28;50207;-71
2022/05/11 12:02:55;;;;;;;;;3.25;2.75;;;;;24.52;40.72;101064.28;5070365;28;49966;-71
2022/05/11 12:05:42;;;;;;;;;6.00;5.00;;;;;24.45;41.30;101041.25;5070333;28;49846;-69